Latest Weather Observations for Legendre Island

IDW60801

Issued at 9:03 pm WST Monday 18 June 2018 (issued every 10 minutes, with the page automatically refreshed every 10 minutes)

About weather observations | Map of weather stations | Latest weather observations for WA | Other Formats
Station Details ID: 004095 Name: LEGENDRE ISLAND Lat: -20.36 Lon: 116.84 Height: 29.0 m
Data from the previous 72 hours. | See also: Recent months at Legendre Island
Date/Time
WST
Temp
°C
App
Temp
°C
Dew
Point
°C
Rel
Hum
%
Delta-T
°C
Wind Press
QNH
hPa
Press
MSL
hPa
Rain since
9am
mm
Dir  Spd
km/h
Gust
km/h
Spd
kts
Gust
kts
18/09:00pm 23.8 - 18.7 73 3.2 - - - - - 1017.3 1017.1 -
18/08:30pm 23.6 - 19.1 76 2.9 - - - - - 1017.5 1017.3 -
18/08:00pm 23.5 - 19.8 80 2.4 - - - - - 1017.5 1017.3 -
18/07:30pm 23.5 - 20.0 81 2.3 - - - - - 1017.3 1017.1 -
18/07:00pm 23.4 - 20.2 82 2.1 - - - - - 1016.8 1016.6 -
18/06:30pm 23.3 - 20.1 82 2.1 - - - - - 1016.7 1016.5 -
18/06:00pm 23.2 - 20.0 82 2.1 - - - - - 1016.3 1016.1 -
18/05:30pm 23.4 - 20.0 81 2.2 - - - - - 1015.7 1015.5 -
18/05:00pm 23.4 - 19.5 79 2.5 - - - - - 1015.5 1015.3 -
18/04:30pm 23.7 - 19.8 79 2.5 - - - - - 1015.1 1015.0 -
18/04:00pm 23.8 - 19.7 78 2.6 - - - - - 1015.1 1015.0 -
18/03:30pm 24.2 - 19.5 75 3.0 - - - - - 1015.1 1015.0 -
18/03:00pm 24.1 - 19.4 75 3.0 - - - - - 1015.3 1015.2 -
18/02:30pm 24.5 - 19.3 73 3.3 - - - - - 1015.3 1015.2 -
18/02:00pm 24.4 - 19.0 72 3.4 - - - - - 1015.6 1015.4 -
18/01:30pm 24.9 - 18.8 69 3.9 - - - - - 1015.8 1015.6 -
18/01:00pm 24.8 - 18.5 68 4.0 - - - - - 1016.1 1015.9 -
18/12:30pm 24.6 - 18.1 67 4.1 - - - - - 1016.5 1016.3 -
18/12:00pm 24.9 - 18.4 67 4.1 - - - - - 1017.1 1016.9 -
18/11:30am 25.0 - 18.2 66 4.3 - - - - - 1017.6 1017.4 -
18/11:00am 24.8 - 18.5 68 4.0 - - - - - 1017.9 1017.7 -
18/10:30am 24.9 - 18.8 69 3.9 - - - - - 1017.8 1017.6 -
18/10:00am 24.8 - 18.7 69 3.9 - - - - - 1018.0 1017.8 -
18/09:30am 24.7 - 18.6 69 3.9 - - - - - 1018.2 1018.0 -
18/09:00am 24.3 - 18.2 68 3.8 - - - - - 1018.2 1018.0 -
18/08:30am 24.1 - 18.1 69 3.8 - - - - - 1017.9 1017.7 -
18/08:00am 24.0 - 18.4 71 3.5 - - - - - 1017.4 1017.2 -
18/07:30am 23.7 - 17.4 68 3.9 - - - - - 1017.0 1016.8 -
18/07:00am 23.5 - 17.9 71 3.5 - - - - - 1016.8 1016.6 -
18/06:30am 23.5 - 17.3 68 3.8 - - - - - 1016.8 1016.6 -
18/06:00am 23.6 - 18.0 71 3.5 - - - - - 1016.9 1016.7 -
18/05:30am 23.5 - 17.9 71 3.5 - - - - - 1016.6 1016.4 -
18/05:00am 23.3 - 18.8 76 2.8 - - - - - 1016.5 1016.3 -
18/04:30am 23.7 - 18.8 74 3.1 - - - - - 1016.5 1016.3 -
18/04:00am 24.1 - 18.5 71 3.5 - - - - - 1016.5 1016.3 -
18/03:30am 24.3 - 18.7 71 3.6 - - - - - 1016.5 1016.3 -
18/03:00am 24.4 - 20.1 77 2.8 - - - - - 1016.4 1016.2 -
18/02:30am 24.1 - 21.0 83 2.0 - - - - - 1016.5 1016.3 -
18/02:00am 24.1 - 21.0 83 2.0 - - - - - 1016.6 1016.4 -
18/01:30am 24.4 - 20.5 79 2.5 - - - - - 1016.8 1016.6 -
18/01:00am 24.7 - 19.8 74 3.2 - - - - - 1016.8 1016.6 -
18/12:30am 24.8 - 19.4 72 3.5 - - - - - 1016.8 1016.6 -
18/12:00am 24.9 - 19.3 71 3.6 - - - - - 1016.4 1016.2 -
 
Date/Time
WST
Temp
°C
App
Temp
°C
Dew
Point
°C
Rel
Hum
%
Delta-T
°C
Wind Press
QNH
hPa
Press
MSL
hPa
Rain since
9am
mm
Dir  Spd
km/h
Gust
km/h
Spd
kts
Gust
kts
17/11:30pm 25.0 - 18.2 66 4.3 - - - - - 1016.2 1016.0 -
17/11:00pm 24.9 - 18.6 68 4.0 - - - - - 1016.1 1015.9 -
17/10:30pm 24.8 - 18.5 68 4.0 - - - - - 1016.6 1016.4 -
17/10:00pm 24.6 - 18.5 69 3.9 - - - - - 1017.1 1016.9 -
17/09:30pm 24.4 - 19.0 72 3.4 - - - - - 1017.4 1017.2 -
17/09:00pm 24.0 - 20.1 79 2.5 - - - - - 1017.5 1017.3 -
17/08:30pm 23.6 - 20.9 85 1.8 - - - - - 1017.7 1017.5 -
17/08:00pm 23.4 - 21.5 89 1.3 - - - - - 1017.3 1017.1 -
17/07:30pm 23.6 - 21.5 88 1.4 - - - - - 1017.2 1017.0 -
17/07:00pm 23.7 - 21.2 86 1.6 - - - - - 1016.9 1016.7 -
17/06:30pm 23.8 - 20.7 83 2.0 - - - - - 1016.7 1016.5 -
17/06:00pm 23.8 - 20.5 82 2.1 - - - - - 1016.7 1016.5 -
17/05:30pm 23.9 - 20.0 79 2.5 - - - - - 1016.5 1016.3 -
17/05:00pm 24.2 - 19.7 76 2.9 - - - - - 1016.5 1016.3 -
17/04:30pm 24.5 - 19.1 72 3.5 - - - - - 1016.6 1016.4 -
17/04:00pm 24.7 - 19.1 71 3.6 - - - - - 1016.6 1016.4 -
17/03:30pm 24.9 - 18.8 69 3.9 - - - - - 1016.4 1016.2 -
17/03:00pm 24.8 - 18.5 68 4.0 - - - - - 1015.2 1015.1 -
17/02:30pm 25.1 - 18.1 65 4.4 - - - - - 1016.1 1015.9 -
17/02:00pm 25.3 - 18.0 64 4.6 - - - - - 1016.4 1016.2 -
17/01:30pm 25.5 - 18.2 64 4.6 - - - - - 1016.6 1016.4 -
17/01:00pm 25.6 - 17.0 59 5.3 - - - - - 1017.0 1016.8 -
17/12:30pm 25.4 - 16.5 58 5.5 - - - - - 1017.3 1017.1 -
17/12:00pm 25.3 - 16.2 57 5.6 - - - - - 1017.7 1017.5 -
17/11:30am 25.1 - 16.0 57 5.6 - - - - - 1018.2 1018.0 -
17/11:00am 24.7 - 14.8 54 5.9 - - - - - 1018.5 1018.4 -
17/10:30am 24.4 - 14.8 55 5.7 - - - - - 1018.9 1018.8 -
17/10:00am 24.2 - 13.4 51 6.3 - - - - - 1019.0 1018.9 -
17/09:30am 24.2 - 14.0 53 6.0 - - - - - 1019.0 1018.9 -
17/09:00am 24.0 - 13.8 53 6.0 - - - - - 1018.8 1018.7 -
17/08:30am 23.8 - 13.1 51 6.2 - - - - - 1018.5 1018.4 -
17/08:00am 23.6 - 12.9 51 6.2 - - - - - 1018.4 1018.3 -
17/07:30am 23.3 - 12.9 52 6.0 - - - - - 1018.3 1018.2 -
17/07:00am 23.0 - 12.9 53 5.8 - - - - - 1018.1 1017.9 -
17/06:30am 23.0 - 13.2 54 5.7 - - - - - 1018.0 1017.8 -
17/06:00am 23.3 - 12.3 50 6.3 - - - - - 1017.8 1017.6 -
17/05:30am 23.4 - 13.6 54 5.7 - - - - - 1017.3 1017.1 -
17/05:00am 23.5 - 14.8 58 5.2 - - - - - 1017.3 1017.1 -
17/04:30am 23.5 - 16.1 63 4.5 - - - - - 1017.2 1017.0 -
17/04:00am 22.8 - 16.6 68 3.8 - - - - - 1017.2 1017.0 -
17/03:30am 21.7 - 18.3 81 2.1 - - - - - 1017.5 1017.3 -
17/03:00am 21.6 - 20.6 94 0.6 - - - - - 1017.5 1017.3 -
17/02:30am 21.8 - 21.8 100 0.0 - - - - - 1017.6 1017.4 -
17/02:00am 21.7 - 21.7 100 0.0 - - - - - 1017.6 1017.4 -
17/01:30am 21.6 - 21.6 100 0.0 - - - - - 1017.8 1017.6 -
17/01:00am 21.9 - 21.9 100 0.0 - - - - - 1017.9 1017.7 -
17/12:30am 22.9 - 22.6 98 0.2 - - - - - 1018.0 1017.8 -
17/12:00am 23.2 - 22.0 93 0.8 - - - - - 1018.1 1017.9 -
 
Date/Time
WST
Temp
°C
App
Temp
°C
Dew
Point
°C
Rel
Hum
%
Delta-T
°C
Wind Press
QNH
hPa
Press
MSL
hPa
Rain since
9am
mm
Dir  Spd
km/h
Gust
km/h
Spd
kts
Gust
kts
16/11:30pm 23.8 - 20.7 83 2.0 - - - - - 1018.4 1018.3 -
16/11:00pm 24.1 - 20.8 82 2.2 - - - - - 1018.4 1018.3 -
16/10:30pm 24.3 - 20.0 77 2.8 - - - - - 1018.4 1018.3 -
16/10:00pm 24.3 - 20.4 79 2.5 - - - - - 1018.4 1018.3 -
16/09:30pm 23.8 - 20.5 82 2.1 - - - - - 1018.5 1018.4 -
16/09:00pm 23.7 - 20.6 83 2.0 - - - - - 1018.5 1018.4 -
16/08:30pm 23.6 - 20.3 82 2.1 - - - - - 1018.4 1018.3 -
16/08:00pm 23.6 - 20.1 81 2.3 - - - - - 1018.3 1018.2 -
16/07:30pm 23.4 - 19.5 79 2.5 - - - - - 1018.2 1018.0 -
16/07:00pm 23.5 - 19.4 78 2.6 - - - - - 1018.1 1017.9 -
16/06:30pm 23.6 - 18.9 75 3.0 - - - - - 1017.9 1017.7 -
16/06:00pm 23.7 - 17.9 70 3.6 - - - - - 1017.6 1017.4 -
16/05:30pm 23.8 - 16.8 65 4.3 - - - - - 1017.5 1017.3 -
16/05:00pm 24.1 - 15.9 60 5.0 - - - - - 1017.3 1017.1 -
16/04:30pm 24.3 - 15.0 56 5.6 - - - - - 1017.2 1017.0 -
16/04:00pm 24.6 - 14.1 52 6.2 - - - - - 1017.0 1016.8 -
16/03:30pm 24.7 - 14.2 52 6.2 - - - - - 1017.0 1016.8 -
16/03:00pm 24.8 - 13.7 50 6.5 - - - - - 1017.0 1016.8 -
16/02:30pm 24.9 - 15.0 54 5.9 - - - - - 1017.0 1016.8 -
16/02:00pm 24.9 - 13.8 50 6.5 - - - - - 1017.1 1016.9 -
16/01:30pm 24.8 - 13.0 47 6.8 - - - - - 1017.3 1017.1 -
16/01:00pm 24.9 - 13.5 49 6.7 - - - - - 1017.7 1017.5 -
16/12:30pm 24.3 - 12.9 49 6.6 - - - - - 1018.3 1018.2 -
16/12:00pm 24.0 - 12.6 49 6.5 - - - - - 1018.8 1018.7 -
16/11:30am 23.6 - 12.6 50 6.3 - - - - - 1019.1 1019.0 -
16/11:00am 23.2 - 11.6 48 6.5 - - - - - 1019.3 1019.2 -
16/10:30am 22.9 - 10.7 46 6.7 - - - - - 1019.5 1019.4 -
16/10:00am 22.7 - 10.5 46 6.7 - - - - - 1019.6 1019.5 -
16/09:30am 22.6 - 10.1 45 6.8 - - - - - 1019.7 1019.6 -
16/09:00am 22.4 - 10.2 46 6.6 - - - - - 1019.8 1019.7 -
16/08:30am 22.2 - 10.7 48 6.3 - - - - - 1019.6 1019.5 -
16/08:00am 21.6 - 10.1 48 6.2 - - - - - 1019.5 1019.4 -
16/07:30am 21.1 - 9.7 48 6.1 - - - - - 1019.2 1019.1 -
16/07:00am 20.7 - 9.0 47 6.2 - - - - - 1018.9 1018.8 -
16/06:30am 20.8 - 9.4 48 6.1 - - - - - 1018.6 1018.5 -
16/06:00am 20.6 - 9.5 49 5.9 - - - - - 1018.2 1018.0 -
16/05:30am 20.4 - 10.8 54 5.2 - - - - - 1018.2 1018.0 -
16/05:00am 20.1 - 9.7 51 5.5 - - - - - 1018.3 1018.2 -
16/04:30am 21.0 - 9.6 48 6.1 - - - - - 1018.0 1017.8 -
16/04:00am 21.1 - 10.9 52 5.6 - - - - - 1018.0 1017.8 -
16/03:30am 21.4 - 10.9 51 5.8 - - - - - 1017.9 1017.7 -
16/03:00am 21.6 - 11.0 51 5.8 - - - - - 1017.9 1017.7 -
16/02:30am 20.8 - 10.6 52 5.6 - - - - - 1018.1 1017.9 -
16/02:00am 21.3 - 10.5 50 5.9 - - - - - 1018.1 1017.9 -
16/01:30am 21.3 - 10.2 49 6.0 - - - - - 1018.5 1018.4 -
16/01:00am 21.6 - 9.2 45 6.6 - - - - - 1018.6 1018.5 -
16/12:30am 20.8 - 9.7 49 6.0 - - - - - 1018.7 1018.6 -
16/12:00am 20.7 - 9.6 49 5.9 - - - - - 1019.0 1018.9 -
 
Date/Time
WST
Temp
°C
App
Temp
°C
Dew
Point
°C
Rel
Hum
%
Delta-T
°C
Wind Press
QNH
hPa
Press
MSL
hPa
Rain since
9am
mm
Dir  Spd
km/h
Gust
km/h
Spd
kts
Gust
kts
15/11:30pm 20.9 - 11.5 55 5.2 - - - - - 1019.3 1019.2 -
15/11:00pm 20.8 - 12.0 57 4.9 - - - - - 1019.5 1019.4 -
15/10:30pm 20.9 - 11.3 54 5.3 - - - - - 1019.5 1019.4 -
15/10:00pm 20.7 - 11.6 56 5.0 - - - - - 1019.6 1019.5 -
15/09:30pm 21.2 - 11.2 53 5.5 - - - - - 1019.6 1019.5 -

Other Formats:

Comma delimited format used in spreadsheet applications
http://www.bom.gov.au/fwo/IDW60801/IDW60801.94307.axf

JavaScript Object Notation format (JSON) in row-major order
http://www.bom.gov.au/fwo/IDW60801/IDW60801.94307.json